sensor_id;sensor_type;location;lat;lon;timestamp;pressure;altitude;pressure_sealevel;temperature
8533;BMP280;4304;53.876;10.662;2023-04-01T00:01:14;99581.78;;;9.93
8533;BMP280;4304;53.876;10.662;2023-04-01T00:03:41;99571.41;;;9.93
8533;BMP280;4304;53.876;10.662;2023-04-01T00:06:06;99578.59;;;10.01
8533;BMP280;4304;53.876;10.662;2023-04-01T00:08:32;99590.63;;;9.91
8533;BMP280;4304;53.876;10.662;2023-04-01T00:10:58;99584.47;;;9.92
8533;BMP280;4304;53.876;10.662;2023-04-01T00:13:24;99573.63;;;9.98
8533;BMP280;4304;53.876;10.662;2023-04-01T00:15:50;99581.28;;;9.99
8533;BMP280;4304;53.876;10.662;2023-04-01T00:18:16;99583.16;;;9.97
8533;BMP280;4304;53.876;10.662;2023-04-01T00:20:49;99581.88;;;9.92
8533;BMP280;4304;53.876;10.662;2023-04-01T00:23:16;99579.75;;;9.77
8533;BMP280;4304;53.876;10.662;2023-04-01T00:25:42;99592.13;;;9.73
8533;BMP280;4304;53.876;10.662;2023-04-01T00:28:07;99587.53;;;9.77
8533;BMP280;4304;53.876;10.662;2023-04-01T00:30:33;99588.09;;;9.80
8533;BMP280;4304;53.876;10.662;2023-04-01T00:32:58;99586.31;;;9.80
8533;BMP280;4304;53.876;10.662;2023-04-01T00:35:23;99577.63;;;9.71
8533;BMP280;4304;53.876;10.662;2023-04-01T00:37:49;99592.03;;;9.75
8533;BMP280;4304;53.876;10.662;2023-04-01T00:40:27;99579.28;;;9.72
8533;BMP280;4304;53.876;10.662;2023-04-01T00:42:53;99579.66;;;9.67
8533;BMP280;4304;53.876;10.662;2023-04-01T00:45:25;99576.25;;;9.67
8533;BMP280;4304;53.876;10.662;2023-04-01T00:47:51;99585.31;;;9.61
8533;BMP280;4304;53.876;10.662;2023-04-01T00:50:16;99586.50;;;9.68
8533;BMP280;4304;53.876;10.662;2023-04-01T00:52:42;99573.78;;;9.65
8533;BMP280;4304;53.876;10.662;2023-04-01T00:55:07;99590.47;;;9.72
8533;BMP280;4304;53.876;10.662;2023-04-01T00:57:37;99591.69;;;9.68
8533;BMP280;4304;53.876;10.662;2023-04-01T01:00:06;99584.06;;;9.56
8533;BMP280;4304;53.876;10.662;2023-04-01T01:02:34;99588.19;;;9.58
8533;BMP280;4304;53.876;10.662;2023-04-01T01:05:00;99584.06;;;9.56
8533;BMP280;4304;53.876;10.662;2023-04-01T01:10:10;99589.13;;;9.57
8533;BMP280;4304;53.876;10.662;2023-04-01T01:23:16;99588.78;;;9.62
8533;BMP280;4304;53.876;10.662;2023-04-01T01:25:59;99588.44;;;9.55
8533;BMP280;4304;53.876;10.662;2023-04-01T01:29:27;99597.38;;;9.62
8533;BMP280;4304;53.876;10.662;2023-04-01T01:36:59;99590.78;;;9.58
8533;BMP280;4304;53.876;10.662;2023-04-01T01:39:28;99597.59;;;9.59
8533;BMP280;4304;53.876;10.662;2023-04-01T01:41:57;99601.28;;;9.57
8533;BMP280;4304;53.876;10.662;2023-04-01T01:44:26;99596.34;;;9.54
8533;BMP280;4304;53.876;10.662;2023-04-01T01:46:54;99599.38;;;9.59
8533;BMP280;4304;53.876;10.662;2023-04-01T01:49:20;99598.69;;;9.57
8533;BMP280;4304;53.876;10.662;2023-04-01T01:51:46;99596.22;;;9.55
8533;BMP280;4304;53.876;10.662;2023-04-01T01:54:14;99604.94;;;9.54
8533;BMP280;4304;53.876;10.662;2023-04-01T01:56:41;99595.53;;;9.53
8533;BMP280;4304;53.876;10.662;2023-04-01T01:59:09;99602.25;;;9.45
8533;BMP280;4304;53.876;10.662;2023-04-01T02:01:39;99606.84;;;9.52
8533;BMP280;4304;53.876;10.662;2023-04-01T02:04:07;99598.59;;;9.47
8533;BMP280;4304;53.876;10.662;2023-04-01T02:06:38;99612.56;;;9.25
8533;BMP280;4304;53.876;10.662;2023-04-01T02:09:08;99607.09;;;9.07
8533;BMP280;4304;53.876;10.662;2023-04-01T02:14:35;99621.38;;;8.80
8533;BMP280;4304;53.876;10.662;2023-04-01T02:17:08;99626.31;;;8.72
8533;BMP280;4304;53.876;10.662;2023-04-01T02:19:40;99629.34;;;8.66
8533;BMP280;4304;53.876;10.662;2023-04-01T02:22:14;99630.06;;;8.57
8533;BMP280;4304;53.876;10.662;2023-04-01T02:24:41;99636.66;;;8.51
8533;BMP280;4304;53.876;10.662;2023-04-01T02:27:09;99618.66;;;8.49
8533;BMP280;4304;53.876;10.662;2023-04-01T02:29:35;99642.28;;;8.45
8533;BMP280;4304;53.876;10.662;2023-04-01T02:32:00;99635.94;;;8.38
8533;BMP280;4304;53.876;10.662;2023-04-01T02:34:27;99655.72;;;8.39
8533;BMP280;4304;53.876;10.662;2023-04-01T02:36:54;99665.59;;;8.34
8533;BMP280;4304;53.876;10.662;2023-04-01T02:39:20;99650.38;;;8.29
8533;BMP280;4304;53.876;10.662;2023-04-01T02:41:46;99653.09;;;8.28
8533;BMP280;4304;53.876;10.662;2023-04-01T02:44:12;99662.16;;;8.22
8533;BMP280;4304;53.876;10.662;2023-04-01T02:46:38;99667.75;;;8.16
8533;BMP280;4304;53.876;10.662;2023-04-01T02:49:03;99668.44;;;8.07
8533;BMP280;4304;53.876;10.662;2023-04-01T02:51:28;99676.72;;;8.00
8533;BMP280;4304;53.876;10.662;2023-04-01T02:53:54;99680.03;;;8.02
8533;BMP280;4304;53.876;10.662;2023-04-01T02:56:19;99666.22;;;7.91
8533;BMP280;4304;53.876;10.662;2023-04-01T02:58:45;99681.03;;;7.89
8533;BMP280;4304;53.876;10.662;2023-04-01T03:01:10;99681.75;;;7.91
8533;BMP280;4304;53.876;10.662;2023-04-01T03:03:36;99683.84;;;7.86
8533;BMP280;4304;53.876;10.662;2023-04-01T03:06:05;99693.41;;;7.73
8533;BMP280;4304;53.876;10.662;2023-04-01T03:08:31;99687.88;;;7.66
8533;BMP280;4304;53.876;10.662;2023-04-01T03:10:56;99700.91;;;7.65
8533;BMP280;4304;53.876;10.662;2023-04-01T03:13:21;99693.28;;;7.64
8533;BMP280;4304;53.876;10.662;2023-04-01T03:15:46;99703.13;;;7.59
8533;BMP280;4304;53.876;10.662;2023-04-01T03:18:12;99695.50;;;7.45
8533;BMP280;4304;53.876;10.662;2023-04-01T03:20:37;99694.78;;;7.43
8533;BMP280;4304;53.876;10.662;2023-04-01T03:23:02;99709.47;;;7.42
8533;BMP280;4304;53.876;10.662;2023-04-01T03:25:28;99712.38;;;7.38
8533;BMP280;4304;53.876;10.662;2023-04-01T03:27:55;99711.19;;;7.19
8533;BMP280;4304;53.876;10.662;2023-04-01T03:30:21;99717.91;;;7.21
8533;BMP280;4304;53.876;10.662;2023-04-01T03:32:46;99723.19;;;7.20
8533;BMP280;4304;53.876;10.662;2023-04-01T03:35:11;99732.50;;;7.10
8533;BMP280;4304;53.876;10.662;2023-04-01T03:37:37;99725.25;;;7.02
8533;BMP280;4304;53.876;10.662;2023-04-01T03:40:03;99732.28;;;7.00
8533;BMP280;4304;53.876;10.662;2023-04-01T03:42:29;99733.66;;;6.93
8533;BMP280;4304;53.876;10.662;2023-04-01T03:44:56;99739.41;;;6.84
8533;BMP280;4304;53.876;10.662;2023-04-01T03:47:21;99749.88;;;6.83
8533;BMP280;4304;53.876;10.662;2023-04-01T03:49:47;99734.69;;;6.79
8533;BMP280;4304;53.876;10.662;2023-04-01T03:52:12;99753.38;;;6.82
8533;BMP280;4304;53.876;10.662;2023-04-01T03:54:38;99755.44;;;6.77
8533;BMP280;4304;53.876;10.662;2023-04-01T03:57:04;99751.53;;;6.72
8533;BMP280;4304;53.876;10.662;2023-04-01T03:59:29;99759.56;;;6.67
8533;BMP280;4304;53.876;10.662;2023-04-01T04:01:55;99764.91;;;6.64
8533;BMP280;4304;53.876;10.662;2023-04-01T04:04:20;99766.50;;;6.67
8533;BMP280;4304;53.876;10.662;2023-04-01T04:06:46;99773.56;;;6.63
8533;BMP280;4304;53.876;10.662;2023-04-01T04:09:12;99766.38;;;6.56
8533;BMP280;4304;53.876;10.662;2023-04-01T04:11:37;99772.00;;;6.48
8533;BMP280;4304;53.876;10.662;2023-04-01T04:14:02;99772.84;;;6.49
8533;BMP280;4304;53.876;10.662;2023-04-01T04:16:28;99788.44;;;6.47
8533;BMP280;4304;53.876;10.662;2023-04-01T04:18:53;99786.25;;;6.41
8533;BMP280;4304;53.876;10.662;2023-04-01T04:21:18;99777.78;;;6.39
8533;BMP280;4304;53.876;10.662;2023-04-01T04:23:44;99792.34;;;6.40
8533;BMP280;4304;53.876;10.662;2023-04-01T04:26:11;99793.16;;;6.41
8533;BMP280;4304;53.876;10.662;2023-04-01T04:28:36;99785.91;;;6.34
8533;BMP280;4304;53.876;10.662;2023-04-01T04:31:02;99796.84;;;6.25
8533;BMP280;4304;53.876;10.662;2023-04-01T04:33:30;99807.16;;;6.25
8533;BMP280;4304;53.876;10.662;2023-04-01T04:35:56;99802.88;;;6.11
8533;BMP280;4304;53.876;10.662;2023-04-01T04:38:22;99800.41;;;6.10
8533;BMP280;4304;53.876;10.662;2023-04-01T04:40:47;99810.31;;;6.16
8533;BMP280;4304;53.876;10.662;2023-04-01T04:43:14;99818.84;;;6.04
8533;BMP280;4304;53.876;10.662;2023-04-01T04:45:40;99822.78;;;6.09
8533;BMP280;4304;53.876;10.662;2023-04-01T04:48:09;99820.41;;;6.06
8533;BMP280;4304;53.876;10.662;2023-04-01T04:50:36;99829.88;;;6.06
8533;BMP280;4304;53.876;10.662;2023-04-01T04:53:02;99837.28;;;5.98
8533;BMP280;4304;53.876;10.662;2023-04-01T04:55:28;99832.59;;;5.91
8533;BMP280;4304;53.876;10.662;2023-04-01T04:57:53;99842.63;;;5.95
8533;BMP280;4304;53.876;10.662;2023-04-01T05:00:18;99837.84;;;5.89
8533;BMP280;4304;53.876;10.662;2023-04-01T05:02:44;99841.44;;;5.87
8533;BMP280;4304;53.876;10.662;2023-04-01T05:05:09;99841.22;;;5.90
8533;BMP280;4304;53.876;10.662;2023-04-01T05:07:37;99849.66;;;5.79
8533;BMP280;4304;53.876;10.662;2023-04-01T05:10:03;99855.53;;;5.81
8533;BMP280;4304;53.876;10.662;2023-04-01T05:12:29;99846.78;;;5.84
8533;BMP280;4304;53.876;10.662;2023-04-01T05:14:54;99854.72;;;5.81
8533;BMP280;4304;53.876;10.662;2023-04-01T05:17:20;99865.75;;;5.83
8533;BMP280;4304;53.876;10.662;2023-04-01T05:19:45;99858.59;;;5.74
8533;BMP280;4304;53.876;10.662;2023-04-01T05:22:11;99856.06;;;5.72
8533;BMP280;4304;53.876;10.662;2023-04-01T05:24:36;99893.63;;;5.76
8533;BMP280;4304;53.876;10.662;2023-04-01T05:27:01;99874.88;;;5.74
8533;BMP280;4304;53.876;10.662;2023-04-01T05:29:27;99891.88;;;5.63
8533;BMP280;4304;53.876;10.662;2023-04-01T05:31:53;99881.94;;;5.71
8533;BMP280;4304;53.876;10.662;2023-04-01T05:34:18;99885.63;;;5.67
8533;BMP280;4304;53.876;10.662;2023-04-01T05:36:44;99891.50;;;5.69
8533;BMP280;4304;53.876;10.662;2023-04-01T05:39:09;99894.72;;;5.58
8533;BMP280;4304;53.876;10.662;2023-04-01T05:41:35;99887.09;;;5.57
8533;BMP280;4304;53.876;10.662;2023-04-01T05:44:02;99897.13;;;5.61
8533;BMP280;4304;53.876;10.662;2023-04-01T05:46:27;99901.25;;;5.50
8533;BMP280;4304;53.876;10.662;2023-04-01T05:48:53;99904.38;;;5.55
8533;BMP280;4304;53.876;10.662;2023-04-01T05:51:18;99906.06;;;5.56
8533;BMP280;4304;53.876;10.662;2023-04-01T05:53:44;99909.53;;;5.55
8533;BMP280;4304;53.876;10.662;2023-04-01T05:56:09;99914.50;;;5.58
8533;BMP280;4304;53.876;10.662;2023-04-01T05:58:36;99926.28;;;5.48
8533;BMP280;4304;53.876;10.662;2023-04-01T06:01:09;99928.78;;;5.50
8533;BMP280;4304;53.876;10.662;2023-04-01T06:03:34;99925.38;;;5.49
8533;BMP280;4304;53.876;10.662;2023-04-01T06:06:01;99934.75;;;5.50
8533;BMP280;4304;53.876;10.662;2023-04-01T06:08:27;99942.94;;;5.43
8533;BMP280;4304;53.876;10.662;2023-04-01T06:16:53;99952.13;;;5.47
8533;BMP280;4304;53.876;10.662;2023-04-01T06:19:55;99945.25;;;5.47
8533;BMP280;4304;53.876;10.662;2023-04-01T06:23:03;99949.09;;;5.40
8533;BMP280;4304;53.876;10.662;2023-04-01T06:39:27;99985.88;;;5.28
8533;BMP280;4304;53.876;10.662;2023-04-01T06:50:25;99998.13;;;5.39
8533;BMP280;4304;53.876;10.662;2023-04-01T06:55:43;100002.53;;;5.37
8533;BMP280;4304;53.876;10.662;2023-04-01T06:58:27;100005.19;;;5.35
8533;BMP280;4304;53.876;10.662;2023-04-01T07:00:58;100015.66;;;5.32
8533;BMP280;4304;53.876;10.662;2023-04-01T07:03:40;100026.25;;;5.28
8533;BMP280;4304;53.876;10.662;2023-04-01T07:06:14;100018.25;;;5.32
8533;BMP280;4304;53.876;10.662;2023-04-01T07:08:43;100022.41;;;5.35
8533;BMP280;4304;53.876;10.662;2023-04-01T07:11:11;100032.53;;;5.38
8533;BMP280;4304;53.876;10.662;2023-04-01T07:13:53;100027.94;;;5.43
8533;BMP280;4304;53.876;10.662;2023-04-01T07:19:32;100030.53;;;5.43
8533;BMP280;4304;53.876;10.662;2023-04-01T07:22:03;100048.47;;;5.44
8533;BMP280;4304;53.876;10.662;2023-04-01T07:24:44;100049.91;;;5.34
8533;BMP280;4304;53.876;10.662;2023-04-01T07:27:12;100049.53;;;5.40
8533;BMP280;4304;53.876;10.662;2023-04-01T07:29:38;100042.09;;;5.36
8533;BMP280;4304;53.876;10.662;2023-04-01T07:35:23;100060.78;;;5.39
8533;BMP280;4304;53.876;10.662;2023-04-01T07:38:02;100063.53;;;5.36
8533;BMP280;4304;53.876;10.662;2023-04-01T07:41:23;100078.66;;;5.42
8533;BMP280;4304;53.876;10.662;2023-04-01T07:48:39;100092.44;;;5.41
8533;BMP280;4304;53.876;10.662;2023-04-01T07:51:27;100082.03;;;5.43
8533;BMP280;4304;53.876;10.662;2023-04-01T07:59:09;100100.72;;;5.46
8533;BMP280;4304;53.876;10.662;2023-04-01T08:02:01;100095.59;;;5.46
8533;BMP280;4304;53.876;10.662;2023-04-01T08:07:04;100099.25;;;5.42
8533;BMP280;4304;53.876;10.662;2023-04-01T08:12:43;100108.63;;;5.43
8533;BMP280;4304;53.876;10.662;2023-04-01T08:18:32;100119.59;;;5.47
8533;BMP280;4304;53.876;10.662;2023-04-01T08:21:05;100127.72;;;5.54
8533;BMP280;4304;53.876;10.662;2023-04-01T08:23:36;100120.31;;;5.49
8533;BMP280;4304;53.876;10.662;2023-04-01T08:26:10;100131.47;;;5.49
8533;BMP280;4304;53.876;10.662;2023-04-01T08:28:45;100136.47;;;5.52
8533;BMP280;4304;53.876;10.662;2023-04-01T08:31:24;100126.97;;;5.52
8533;BMP280;4304;53.876;10.662;2023-04-01T08:33:53;100145.84;;;5.53
8533;BMP280;4304;53.876;10.662;2023-04-01T08:36:27;100141.88;;;5.48
8533;BMP280;4304;53.876;10.662;2023-04-01T08:39:05;100147.69;;;5.51
8533;BMP280;4304;53.876;10.662;2023-04-01T08:44:27;100152.66;;;5.54
8533;BMP280;4304;53.876;10.662;2023-04-01T08:55:34;100170.09;;;5.64
8533;BMP280;4304;53.876;10.662;2023-04-01T09:14:21;100189.31;;;5.59
8533;BMP280;4304;53.876;10.662;2023-04-01T09:25:04;100208.84;;;5.63
8533;BMP280;4304;53.876;10.662;2023-04-01T09:27:44;100201.50;;;5.71
8533;BMP280;4304;53.876;10.662;2023-04-01T09:35:38;100218.56;;;5.58
8533;BMP280;4304;53.876;10.662;2023-04-01T09:40:54;100234.59;;;5.63
8533;BMP280;4304;53.876;10.662;2023-04-01T09:48:44;100246.06;;;5.73
8533;BMP280;4304;53.876;10.662;2023-04-01T09:51:23;100248.41;;;5.62
8533;BMP280;4304;53.876;10.662;2023-04-01T09:54:19;100242.00;;;5.69
8533;BMP280;4304;53.876;10.662;2023-04-01T10:02:44;100274.19;;;5.62
8533;BMP280;4304;53.876;10.662;2023-04-01T10:16:22;100273.63;;;5.57
8533;BMP280;4304;53.876;10.662;2023-04-01T10:30:23;100297.94;;;5.36
8533;BMP280;4304;53.876;10.662;2023-04-01T10:36:55;100297.16;;;5.19
8533;BMP280;4304;53.876;10.662;2023-04-01T10:39:35;100307.50;;;5.34
8533;BMP280;4304;53.876;10.662;2023-04-01T10:56:34;100320.75;;;5.27
8533;BMP280;4304;53.876;10.662;2023-04-01T11:15:25;100352.78;;;5.06
8533;BMP280;4304;53.876;10.662;2023-04-01T11:18:09;100362.69;;;5.13
8533;BMP280;4304;53.876;10.662;2023-04-01T11:23:22;100363.13;;;5.21
8533;BMP280;4304;53.876;10.662;2023-04-01T11:28:24;100376.56;;;5.11
8533;BMP280;4304;53.876;10.662;2023-04-01T11:31:20;100376.69;;;5.25
8533;BMP280;4304;53.876;10.662;2023-04-01T11:42:20;100397.28;;;5.25
8533;BMP280;4304;53.876;10.662;2023-04-01T11:45:15;100385.94;;;5.12
8533;BMP280;4304;53.876;10.662;2023-04-01T11:55:54;100404.63;;;5.15
8533;BMP280;4304;53.876;10.662;2023-04-01T11:58:51;100425.69;;;5.23
8533;BMP280;4304;53.876;10.662;2023-04-01T12:01:48;100423.56;;;5.31
8533;BMP280;4304;53.876;10.662;2023-04-01T12:10:18;100432.66;;;5.21
8533;BMP280;4304;53.876;10.662;2023-04-01T12:18:35;100460.06;;;5.22
8533;BMP280;4304;53.876;10.662;2023-04-01T12:29:19;100467.53;;;5.11
8533;BMP280;4304;53.876;10.662;2023-04-01T12:32:17;100476.81;;;5.14
8533;BMP280;4304;53.876;10.662;2023-04-01T12:35:24;100487.28;;;5.11
8533;BMP280;4304;53.876;10.662;2023-04-01T12:38:04;100484.63;;;5.12
8533;BMP280;4304;53.876;10.662;2023-04-01T12:40:50;100488.88;;;5.13
8533;BMP280;4304;53.876;10.662;2023-04-01T12:52:11;100512.25;;;4.92
8533;BMP280;4304;53.876;10.662;2023-04-01T12:55:15;100509.16;;;5.03
8533;BMP280;4304;53.876;10.662;2023-04-01T12:58:03;100536.84;;;4.98
8533;BMP280;4304;53.876;10.662;2023-04-01T13:00:46;100517.94;;;4.99
8533;BMP280;4304;53.876;10.662;2023-04-01T13:09:28;100535.06;;;5.00
8533;BMP280;4304;53.876;10.662;2023-04-01T13:17:46;100554.59;;;5.04
8533;BMP280;4304;53.876;10.662;2023-04-01T13:25:51;100559.16;;;5.15
8533;BMP280;4304;53.876;10.662;2023-04-01T13:28:29;100553.94;;;5.17
8533;BMP280;4304;53.876;10.662;2023-04-01T13:34:29;100557.44;;;5.16
8533;BMP280;4304;53.876;10.662;2023-04-01T13:44:22;100584.41;;;5.26
8533;BMP280;4304;53.876;10.662;2023-04-01T14:00:28;100595.78;;;5.04
8533;BMP280;4304;53.876;10.662;2023-04-01T14:06:10;100600.94;;;5.04
8533;BMP280;4304;53.876;10.662;2023-04-01T14:11:44;100607.44;;;4.94
8533;BMP280;4304;53.876;10.662;2023-04-01T14:19:44;100639.53;;;4.87
8533;BMP280;4304;53.876;10.662;2023-04-01T14:22:32;100637.00;;;4.85
8533;BMP280;4304;53.876;10.662;2023-04-01T14:25:15;100650.56;;;4.89
8533;BMP280;4304;53.876;10.662;2023-04-01T14:30:43;100640.69;;;4.98
8533;BMP280;4304;53.876;10.662;2023-04-01T14:47:28;100665.31;;;4.85
8533;BMP280;4304;53.876;10.662;2023-04-01T14:50:29;100674.63;;;4.88
8533;BMP280;4304;53.876;10.662;2023-04-01T14:55:54;100681.72;;;4.83
8533;BMP280;4304;53.876;10.662;2023-04-01T14:58:40;100688.31;;;4.70
8533;BMP280;4304;53.876;10.662;2023-04-01T15:03:46;100695.72;;;4.77
8533;BMP280;4304;53.876;10.662;2023-04-01T15:06:35;100702.47;;;4.80
8533;BMP280;4304;53.876;10.662;2023-04-01T15:22:32;100729.16;;;4.59
8533;BMP280;4304;53.876;10.662;2023-04-01T15:30:33;100752.03;;;4.65
8533;BMP280;4304;53.876;10.662;2023-04-01T15:35:36;100754.13;;;4.57
8533;BMP280;4304;53.876;10.662;2023-04-01T15:41:27;100755.00;;;4.56
8533;BMP280;4304;53.876;10.662;2023-04-01T15:44:01;100769.41;;;4.60
8533;BMP280;4304;53.876;10.662;2023-04-01T15:52:03;100792.97;;;4.51
8533;BMP280;4304;53.876;10.662;2023-04-01T15:57:25;100796.69;;;4.44
8533;BMP280;4304;53.876;10.662;2023-04-01T16:02:44;100816.00;;;4.54
8533;BMP280;4304;53.876;10.662;2023-04-01T16:07:59;100804.53;;;4.41
8533;BMP280;4304;53.876;10.662;2023-04-01T16:10:38;100811.91;;;4.49
8533;BMP280;4304;53.876;10.662;2023-04-01T16:18:49;100836.09;;;4.45
8533;BMP280;4304;53.876;10.662;2023-04-01T16:21:33;100831.66;;;4.48
8533;BMP280;4304;53.876;10.662;2023-04-01T16:24:17;100824.66;;;4.52
8533;BMP280;4304;53.876;10.662;2023-04-01T16:26:56;100834.91;;;4.53
8533;BMP280;4304;53.876;10.662;2023-04-01T16:29:30;100841.31;;;4.43
8533;BMP280;4304;53.876;10.662;2023-04-01T16:32:14;100869.06;;;4.35
8533;BMP280;4304;53.876;10.662;2023-04-01T16:35:04;100851.13;;;4.34
8533;BMP280;4304;53.876;10.662;2023-04-01T16:37:45;100875.97;;;4.35
8533;BMP280;4304;53.876;10.662;2023-04-01T16:42:49;100871.25;;;4.24
8533;BMP280;4304;53.876;10.662;2023-04-01T16:45:21;100885.97;;;4.21
8533;BMP280;4304;53.876;10.662;2023-04-01T16:50:53;100890.56;;;4.13
8533;BMP280;4304;53.876;10.662;2023-04-01T16:58:36;100904.47;;;4.08
8533;BMP280;4304;53.876;10.662;2023-04-01T17:01:12;100928.50;;;4.08
8533;BMP280;4304;53.876;10.662;2023-04-01T17:03:44;100916.63;;;4.04
8533;BMP280;4304;53.876;10.662;2023-04-01T17:11:52;100940.72;;;4.02
8533;BMP280;4304;53.876;10.662;2023-04-01T17:15:28;100940.69;;;4.03
8533;BMP280;4304;53.876;10.662;2023-04-01T17:23:12;100976.00;;;3.98
8533;BMP280;4304;53.876;10.662;2023-04-01T17:25:49;100991.59;;;3.94
8533;BMP280;4304;53.876;10.662;2023-04-01T17:28:31;100971.91;;;3.93
8533;BMP280;4304;53.876;10.662;2023-04-01T17:36:53;101009.84;;;3.86
8533;BMP280;4304;53.876;10.662;2023-04-01T17:42:04;101022.78;;;3.85
8533;BMP280;4304;53.876;10.662;2023-04-01T17:48:03;101023.03;;;3.78
8533;BMP280;4304;53.876;10.662;2023-04-01T17:53:22;101030.69;;;3.79
8533;BMP280;4304;53.876;10.662;2023-04-01T17:58:28;101044.56;;;3.75
8533;BMP280;4304;53.876;10.662;2023-04-01T18:09:35;101063.56;;;3.70
8533;BMP280;4304;53.876;10.662;2023-04-01T18:20:58;101100.41;;;3.70
8533;BMP280;4304;53.876;10.662;2023-04-01T18:23:39;101115.97;;;3.66
8533;BMP280;4304;53.876;10.662;2023-04-01T18:26:10;101114.91;;;3.71
8533;BMP280;4304;53.876;10.662;2023-04-01T18:28:41;101122.72;;;3.68
8533;BMP280;4304;53.876;10.662;2023-04-01T18:31:17;101115.97;;;3.66
8533;BMP280;4304;53.876;10.662;2023-04-01T18:36:43;101129.47;;;3.72
8533;BMP280;4304;53.876;10.662;2023-04-01T18:39:40;101139.75;;;3.72
8533;BMP280;4304;53.876;10.662;2023-04-01T18:42:38;101161.38;;;3.65
8533;BMP280;4304;53.876;10.662;2023-04-01T18:47:47;101171.66;;;3.65
8533;BMP280;4304;53.876;10.662;2023-04-01T18:50:22;101167.59;;;3.58
8533;BMP280;4304;53.876;10.662;2023-04-01T18:52:58;101183.00;;;3.58
8533;BMP280;4304;53.876;10.662;2023-04-01T18:55:40;101186.94;;;3.44
8533;BMP280;4304;53.876;10.662;2023-04-01T18:58:22;101184.47;;;3.41
8533;BMP280;4304;53.876;10.662;2023-04-01T19:03:51;101208.00;;;3.28
8533;BMP280;4304;53.876;10.662;2023-04-01T19:06:41;101227.88;;;3.21
8533;BMP280;4304;53.876;10.662;2023-04-01T19:09:29;101233.06;;;3.20
8533;BMP280;4304;53.876;10.662;2023-04-01T19:14:26;101230.66;;;3.14
8533;BMP280;4304;53.876;10.662;2023-04-01T19:17:04;101240.19;;;3.10
8533;BMP280;4304;53.876;10.662;2023-04-01T19:19:48;101235.09;;;3.09
8533;BMP280;4304;53.876;10.662;2023-04-01T19:22:41;101237.06;;;2.99
8533;BMP280;4304;53.876;10.662;2023-04-01T19:27:53;101235.53;;;2.94
8533;BMP280;4304;53.876;10.662;2023-04-01T19:30:29;101239.09;;;2.90
8533;BMP280;4304;53.876;10.662;2023-04-01T19:33:05;101247.53;;;2.94
8533;BMP280;4304;53.876;10.662;2023-04-01T19:35:45;101256.06;;;2.94
8533;BMP280;4304;53.876;10.662;2023-04-01T19:38:35;101262.97;;;2.92
8533;BMP280;4304;53.876;10.662;2023-04-01T19:43:37;101277.44;;;2.95
8533;BMP280;4304;53.876;10.662;2023-04-01T19:46:23;101297.22;;;2.91
8533;BMP280;4304;53.876;10.662;2023-04-01T19:49:14;101290.53;;;2.86
8533;BMP280;4304;53.876;10.662;2023-04-01T19:51:51;101293.16;;;2.84
8533;BMP280;4304;53.876;10.662;2023-04-01T19:54:44;101291.56;;;2.80
8533;BMP280;4304;53.876;10.662;2023-04-01T19:57:37;101312.09;;;2.80
8533;BMP280;4304;53.876;10.662;2023-04-01T20:07:58;101324.09;;;2.78
8533;BMP280;4304;53.876;10.662;2023-04-01T20:10:29;101339.50;;;2.78
8533;BMP280;4304;53.876;10.662;2023-04-01T20:13:13;101320.00;;;2.71
8533;BMP280;4304;53.876;10.662;2023-04-01T20:15:47;101333.63;;;2.73
8533;BMP280;4304;53.876;10.662;2023-04-01T20:18:27;101337.09;;;2.72
8533;BMP280;4304;53.876;10.662;2023-04-01T20:21:06;101345.03;;;2.63
8533;BMP280;4304;53.876;10.662;2023-04-01T20:23:50;101360.38;;;2.65
8533;BMP280;4304;53.876;10.662;2023-04-01T20:26:33;101372.31;;;2.67
8533;BMP280;4304;53.876;10.662;2023-04-01T20:35:02;101367.53;;;2.54
8533;BMP280;4304;53.876;10.662;2023-04-01T20:41:45;101382.88;;;2.55
8533;BMP280;4304;53.876;10.662;2023-04-01T20:44:31;101384.66;;;2.52
8533;BMP280;4304;53.876;10.662;2023-04-01T20:57:38;101401.09;;;2.44
8533;BMP280;4304;53.876;10.662;2023-04-01T21:03:09;101419.28;;;2.35
8533;BMP280;4304;53.876;10.662;2023-04-01T21:16:31;101425.44;;;2.28
8533;BMP280;4304;53.876;10.662;2023-04-01T21:22:04;101430.44;;;2.32
8533;BMP280;4304;53.876;10.662;2023-04-01T21:24:48;101434.00;;;2.27
8533;BMP280;4304;53.876;10.662;2023-04-01T21:33:29;101444.38;;;2.21
8533;BMP280;4304;53.876;10.662;2023-04-01T21:36:11;101445.25;;;2.21
8533;BMP280;4304;53.876;10.662;2023-04-01T21:38:48;101459.72;;;2.24
8533;BMP280;4304;53.876;10.662;2023-04-01T21:41:24;101472.59;;;2.21
8533;BMP280;4304;53.876;10.662;2023-04-01T21:44:34;101470.78;;;2.24
8533;BMP280;4304;53.876;10.662;2023-04-01T22:00:51;101504.94;;;2.28
8533;BMP280;4304;53.876;10.662;2023-04-01T22:06:43;101533.97;;;2.28
8533;BMP280;4304;53.876;10.662;2023-04-01T22:09:18;101526.31;;;2.27
8533;BMP280;4304;53.876;10.662;2023-04-01T22:12:02;101528.09;;;2.23
8533;BMP280;4304;53.876;10.662;2023-04-01T22:17:08;101548.38;;;2.34
8533;BMP280;4304;53.876;10.662;2023-04-01T22:25:22;101556.13;;;2.31
8533;BMP280;4304;53.876;10.662;2023-04-01T22:27:58;101557.06;;;2.28
8533;BMP280;4304;53.876;10.662;2023-04-01T22:30:51;101565.59;;;2.29
8533;BMP280;4304;53.876;10.662;2023-04-01T22:41:41;101574.34;;;2.19
8533;BMP280;4304;53.876;10.662;2023-04-01T22:47:40;101572.66;;;2.18
8533;BMP280;4304;53.876;10.662;2023-04-01T22:50:20;101584.53;;;2.22
8533;BMP280;4304;53.876;10.662;2023-04-01T22:52:51;101585.50;;;2.18
8533;BMP280;4304;53.876;10.662;2023-04-01T22:55:29;101583.78;;;2.17
8533;BMP280;4304;53.876;10.662;2023-04-01T22:58:00;101586.16;;;2.26
8533;BMP280;4304;53.876;10.662;2023-04-01T23:00:40;101591.59;;;2.11
8533;BMP280;4304;53.876;10.662;2023-04-01T23:05:52;101594.94;;;2.14
8533;BMP280;4304;53.876;10.662;2023-04-01T23:11:08;101604.34;;;2.14
8533;BMP280;4304;53.876;10.662;2023-04-01T23:13:38;101608.63;;;2.15
8533;BMP280;4304;53.876;10.662;2023-04-01T23:16:06;101601.97;;;2.05
8533;BMP280;4304;53.876;10.662;2023-04-01T23:21:17;101616.16;;;2.21
8533;BMP280;4304;53.876;10.662;2023-04-01T23:24:10;101622.19;;;2.20
8533;BMP280;4304;53.876;10.662;2023-04-01T23:26:46;101623.06;;;2.17
8533;BMP280;4304;53.876;10.662;2023-04-01T23:29:16;101640.09;;;2.21
8533;BMP280;4304;53.876;10.662;2023-04-01T23:31:47;101623.84;;;2.22
8533;BMP280;4304;53.876;10.662;2023-04-01T23:36:43;101637.38;;;2.29
8533;BMP280;4304;53.876;10.662;2023-04-01T23:39:34;101636.69;;;2.21
8533;BMP280;4304;53.876;10.662;2023-04-01T23:42:21;101643.56;;;2.19
8533;BMP280;4304;53.876;10.662;2023-04-01T23:44:49;101646.94;;;2.21
8533;BMP280;4304;53.876;10.662;2023-04-01T23:47:18;101658.84;;;2.25
8533;BMP280;4304;53.876;10.662;2023-04-01T23:49:48;101659.69;;;2.24
8533;BMP280;4304;53.876;10.662;2023-04-01T23:52:22;101669.16;;;2.22
8533;BMP280;4304;53.876;10.662;2023-04-01T23:54:54;101669.09;;;2.25